sensor_id;sensor_type;location;lat;lon;timestamp;pressure;altitude;pressure_sealevel;temperature;humidity
11856;BME280;5987;53.140;8.904;2023-11-19T00:00:08;101045.59;;;5.33;100.00
11856;BME280;5987;53.140;8.904;2023-11-19T00:03:15;101035.09;;;5.40;100.00
11856;BME280;5987;53.140;8.904;2023-11-19T00:06:20;101030.72;;;5.43;100.00
11856;BME280;5987;53.140;8.904;2023-11-19T00:09:23;101022.00;;;5.46;100.00
11856;BME280;5987;53.140;8.904;2023-11-19T00:12:29;101021.00;;;5.56;100.00
11856;BME280;5987;53.140;8.904;2023-11-19T00:15:33;101014.94;;;5.53;100.00
11856;BME280;5987;53.140;8.904;2023-11-19T00:18:36;101007.00;;;5.63;100.00
11856;BME280;5987;53.140;8.904;2023-11-19T00:21:40;101001.84;;;5.60;100.00
11856;BME280;5987;53.140;8.904;2023-11-19T00:24:44;100989.78;;;5.53;100.00
11856;BME280;5987;53.140;8.904;2023-11-19T00:27:49;100998.38;;;5.61;100.00
11856;BME280;5987;53.140;8.904;2023-11-19T00:30:56;100985.25;;;5.66;100.00
11856;BME280;5987;53.140;8.904;2023-11-19T00:34:00;100981.00;;;5.60;100.00
11856;BME280;5987;53.140;8.904;2023-11-19T00:37:04;100989.69;;;5.59;100.00
11856;BME280;5987;53.140;8.904;2023-11-19T00:40:10;100968.81;;;5.64;100.00
11856;BME280;5987;53.140;8.904;2023-11-19T00:43:15;100967.06;;;5.64;100.00
11856;BME280;5987;53.140;8.904;2023-11-19T00:46:20;100975.75;;;5.63;100.00
11856;BME280;5987;53.140;8.904;2023-11-19T00:49:24;100975.66;;;5.68;100.00
11856;BME280;5987;53.140;8.904;2023-11-19T00:52:27;100961.75;;;5.71;100.00
11856;BME280;5987;53.140;8.904;2023-11-19T00:55:31;100957.41;;;5.73;100.00
11856;BME280;5987;53.140;8.904;2023-11-19T00:58:36;100948.69;;;5.72;100.00
11856;BME280;5987;53.140;8.904;2023-11-19T01:01:40;100938.19;;;5.80;100.00
11856;BME280;5987;53.140;8.904;2023-11-19T01:04:44;100932.91;;;5.83;100.00
11856;BME280;5987;53.140;8.904;2023-11-19T01:07:48;100935.56;;;5.80;100.00
11856;BME280;5987;53.140;8.904;2023-11-19T01:10:52;100926.91;;;5.78;100.00
11856;BME280;5987;53.140;8.904;2023-11-19T01:13:57;100928.50;;;5.88;100.00
11856;BME280;5987;53.140;8.904;2023-11-19T01:17:01;100924.22;;;5.84;100.00
11856;BME280;5987;53.140;8.904;2023-11-19T01:20:08;100920.59;;;5.93;100.00
11856;BME280;5987;53.140;8.904;2023-11-19T01:23:14;100920.53;;;5.97;100.00
11856;BME280;5987;53.140;8.904;2023-11-19T01:26:18;100918.72;;;6.04;100.00
11856;BME280;5987;53.140;8.904;2023-11-19T01:29:23;100924.00;;;5.99;100.00
11856;BME280;5987;53.140;8.904;2023-11-19T01:32:27;100911.72;;;6.05;100.00
11856;BME280;5987;53.140;8.904;2023-11-19T01:35:31;100908.13;;;6.13;100.00
11856;BME280;5987;53.140;8.904;2023-11-19T01:38:34;100902.09;;;6.10;100.00
11856;BME280;5987;53.140;8.904;2023-11-19T01:41:38;100907.31;;;6.10;100.00
11856;BME280;5987;53.140;8.904;2023-11-19T01:44:57;100892.44;;;6.16;100.00
11856;BME280;5987;53.140;8.904;2023-11-19T01:48:03;100889.78;;;6.18;100.00
11856;BME280;5987;53.140;8.904;2023-11-19T01:51:08;100879.31;;;6.21;100.00
11856;BME280;5987;53.140;8.904;2023-11-19T01:54:12;100893.13;;;6.26;100.00
11856;BME280;5987;53.140;8.904;2023-11-19T01:57:18;100885.22;;;6.31;100.00
11856;BME280;5987;53.140;8.904;2023-11-19T02:00:24;100876.44;;;6.35;100.00
11856;BME280;5987;53.140;8.904;2023-11-19T02:03:28;100885.84;;;6.44;100.00
11856;BME280;5987;53.140;8.904;2023-11-19T02:06:34;100875.41;;;6.44;100.00
11856;BME280;5987;53.140;8.904;2023-11-19T02:09:42;100889.22;;;6.49;100.00
11856;BME280;5987;53.140;8.904;2023-11-19T02:12:46;100875.13;;;6.59;100.00
11856;BME280;5987;53.140;8.904;2023-11-19T02:15:52;100864.44;;;6.72;100.00
11856;BME280;5987;53.140;8.904;2023-11-19T02:18:57;100871.19;;;6.82;100.00
11856;BME280;5987;53.140;8.904;2023-11-19T02:22:01;100871.72;;;6.98;100.00
11856;BME280;5987;53.140;8.904;2023-11-19T02:25:12;100872.72;;;6.92;100.00
11856;BME280;5987;53.140;8.904;2023-11-19T02:28:21;100860.31;;;7.03;100.00
11856;BME280;5987;53.140;8.904;2023-11-19T02:31:25;100848.81;;;7.11;100.00
11856;BME280;5987;53.140;8.904;2023-11-19T02:34:30;100850.56;;;7.12;100.00
11856;BME280;5987;53.140;8.904;2023-11-19T02:37:34;100852.16;;;7.17;100.00
11856;BME280;5987;53.140;8.904;2023-11-19T02:40:37;100859.69;;;7.31;100.00
11856;BME280;5987;53.140;8.904;2023-11-19T02:43:42;100858.78;;;7.32;100.00
11856;BME280;5987;53.140;8.904;2023-11-19T02:46:46;100866.38;;;7.43;100.00
11856;BME280;5987;53.140;8.904;2023-11-19T02:49:51;100854.16;;;7.44;100.00
11856;BME280;5987;53.140;8.904;2023-11-19T02:52:56;100842.75;;;7.48;100.00
11856;BME280;5987;53.140;8.904;2023-11-19T02:56:01;100839.81;;;7.62;100.00
11856;BME280;5987;53.140;8.904;2023-11-19T02:59:23;100843.00;;;7.73;100.00
11856;BME280;5987;53.140;8.904;2023-11-19T03:02:30;100841.03;;;7.83;100.00
11856;BME280;5987;53.140;8.904;2023-11-19T03:05:36;100838.22;;;7.90;100.00
11856;BME280;5987;53.140;8.904;2023-11-19T03:08:43;100834.56;;;7.98;100.00
11856;BME280;5987;53.140;8.904;2023-11-19T03:11:46;100846.25;;;8.17;100.00
11856;BME280;5987;53.140;8.904;2023-11-19T03:14:51;100848.72;;;8.22;100.00
11856;BME280;5987;53.140;8.904;2023-11-19T03:17:55;100843.81;;;8.43;100.00
11856;BME280;5987;53.140;8.904;2023-11-19T03:20:59;100855.81;;;8.51;100.00
11856;BME280;5987;53.140;8.904;2023-11-19T03:24:03;100845.31;;;8.53;100.00
11856;BME280;5987;53.140;8.904;2023-11-19T03:27:07;100850.41;;;8.57;100.00
11856;BME280;5987;53.140;8.904;2023-11-19T03:30:12;100853.91;;;8.58;100.00
11856;BME280;5987;53.140;8.904;2023-11-19T03:33:16;100862.63;;;8.57;100.00
11856;BME280;5987;53.140;8.904;2023-11-19T03:36:20;100857.16;;;8.65;100.00
11856;BME280;5987;53.140;8.904;2023-11-19T03:39:23;100863.88;;;8.75;100.00
11856;BME280;5987;53.140;8.904;2023-11-19T03:42:29;100869.78;;;8.82;100.00
11856;BME280;5987;53.140;8.904;2023-11-19T03:45:34;100867.28;;;8.77;100.00
11856;BME280;5987;53.140;8.904;2023-11-19T03:48:38;100873.22;;;8.84;100.00
11856;BME280;5987;53.140;8.904;2023-11-19T03:51:42;100869.78;;;8.82;100.00
11856;BME280;5987;53.140;8.904;2023-11-19T03:54:47;100867.97;;;8.84;100.00
11856;BME280;5987;53.140;8.904;2023-11-19T03:57:51;100868.56;;;8.93;100.00
11856;BME280;5987;53.140;8.904;2023-11-19T04:00:56;100867.53;;;8.99;100.00
11856;BME280;5987;53.140;8.904;2023-11-19T04:04:00;100870.78;;;9.07;100.00
11856;BME280;5987;53.140;8.904;2023-11-19T04:07:05;100876.03;;;9.07;100.00
11856;BME280;5987;53.140;8.904;2023-11-19T04:10:09;100876.91;;;9.06;100.00
11856;BME280;5987;53.140;8.904;2023-11-19T04:13:13;100880.44;;;9.05;100.00
11856;BME280;5987;53.140;8.904;2023-11-19T04:16:18;100881.25;;;9.07;100.00
11856;BME280;5987;53.140;8.904;2023-11-19T04:19:22;100875.28;;;9.02;100.00
11856;BME280;5987;53.140;8.904;2023-11-19T04:22:26;100891.53;;;9.14;100.00
11856;BME280;5987;53.140;8.904;2023-11-19T04:25:30;100896.47;;;9.24;100.00
11856;BME280;5987;53.140;8.904;2023-11-19T04:28:34;100887.13;;;9.16;100.00
11856;BME280;5987;53.140;8.904;2023-11-19T04:31:39;100884.53;;;9.16;100.00
11856;BME280;5987;53.140;8.904;2023-11-19T04:34:43;100884.53;;;9.16;100.00
11856;BME280;5987;53.140;8.904;2023-11-19T04:37:47;100891.28;;;9.23;100.00
11856;BME280;5987;53.140;8.904;2023-11-19T04:40:52;100891.38;;;9.20;100.00
11856;BME280;5987;53.140;8.904;2023-11-19T04:43:55;100887.16;;;9.44;100.00
11856;BME280;5987;53.140;8.904;2023-11-19T04:47:01;100889.13;;;9.36;100.00
11856;BME280;5987;53.140;8.904;2023-11-19T04:50:06;100884.06;;;9.31;100.00
11856;BME280;5987;53.140;8.904;2023-11-19T04:53:13;100884.66;;;9.39;100.00
11856;BME280;5987;53.140;8.904;2023-11-19T04:56:18;100882.59;;;9.49;100.00
11856;BME280;5987;53.140;8.904;2023-11-19T04:59:22;100867.22;;;9.38;100.00
11856;BME280;5987;53.140;8.904;2023-11-19T05:02:27;100875.72;;;9.47;100.00
11856;BME280;5987;53.140;8.904;2023-11-19T05:05:30;100876.03;;;9.36;100.00
11856;BME280;5987;53.140;8.904;2023-11-19T05:08:35;100884.47;;;9.46;100.00
11856;BME280;5987;53.140;8.904;2023-11-19T05:11:39;100894.75;;;9.52;100.00
11856;BME280;5987;53.140;8.904;2023-11-19T05:14:46;100888.84;;;9.45;100.00
11856;BME280;5987;53.140;8.904;2023-11-19T05:17:53;100886.38;;;9.40;100.00
11856;BME280;5987;53.140;8.904;2023-11-19T05:20:57;100886.53;;;9.36;100.00
11856;BME280;5987;53.140;8.904;2023-11-19T05:24:01;100895.47;;;9.57;100.00
11856;BME280;5987;53.140;8.904;2023-11-19T05:27:06;100900.25;;;9.44;100.00
11856;BME280;5987;53.140;8.904;2023-11-19T05:30:11;100898.88;;;9.59;100.00
11856;BME280;5987;53.140;8.904;2023-11-19T05:33:16;100899.00;;;9.56;100.00
11856;BME280;5987;53.140;8.904;2023-11-19T05:36:20;100903.28;;;9.58;100.00
11856;BME280;5987;53.140;8.904;2023-11-19T05:39:23;100910.72;;;9.72;100.00
11856;BME280;5987;53.140;8.904;2023-11-19T05:42:27;100910.00;;;9.67;100.00
11856;BME280;5987;53.140;8.904;2023-11-19T05:45:32;100907.25;;;9.70;100.00
11856;BME280;5987;53.140;8.904;2023-11-19T05:48:37;100913.44;;;9.69;100.00
11856;BME280;5987;53.140;8.904;2023-11-19T05:51:41;100913.13;;;9.78;100.00
11856;BME280;5987;53.140;8.904;2023-11-19T05:54:44;100908.81;;;9.77;100.00
11856;BME280;5987;53.140;8.904;2023-11-19T05:57:50;100910.38;;;9.83;100.00
11856;BME280;5987;53.140;8.904;2023-11-19T06:00:55;100915.56;;;9.85;100.00
11856;BME280;5987;53.140;8.904;2023-11-19T06:04:00;100920.59;;;9.91;100.00
11856;BME280;5987;53.140;8.904;2023-11-19T06:07:04;100925.09;;;9.87;100.00
11856;BME280;5987;53.140;8.904;2023-11-19T06:10:09;100926.84;;;9.87;100.00
11856;BME280;5987;53.140;8.904;2023-11-19T06:13:13;100926.69;;;9.91;100.00
11856;BME280;5987;53.140;8.904;2023-11-19T06:16:18;100917.94;;;9.92;100.00
11856;BME280;5987;53.140;8.904;2023-11-19T06:19:23;100912.56;;;9.95;100.00
11856;BME280;5987;53.140;8.904;2023-11-19T06:22:31;100914.41;;;9.93;100.00
11856;BME280;5987;53.140;8.904;2023-11-19T06:25:35;100918.69;;;9.96;100.00
11856;BME280;5987;53.140;8.904;2023-11-19T06:28:39;100908.88;;;10.03;100.00
11856;BME280;5987;53.140;8.904;2023-11-19T06:31:43;100906.38;;;9.98;100.00
11856;BME280;5987;53.140;8.904;2023-11-19T06:34:48;100889.84;;;9.96;100.00
11856;BME280;5987;53.140;8.904;2023-11-19T06:37:51;100882.09;;;9.91;100.00
11856;BME280;5987;53.140;8.904;2023-11-19T06:40:55;100882.81;;;9.96;100.00
11856;BME280;5987;53.140;8.904;2023-11-19T06:43:59;100865.34;;;9.95;100.00
11856;BME280;5987;53.140;8.904;2023-11-19T06:47:03;100861.94;;;9.93;100.00
11856;BME280;5987;53.140;8.904;2023-11-19T06:50:08;100855.03;;;9.91;100.00
11856;BME280;5987;53.140;8.904;2023-11-19T06:53:14;100840.97;;;9.93;100.00
11856;BME280;5987;53.140;8.904;2023-11-19T06:56:20;100840.13;;;9.93;100.00
11856;BME280;5987;53.140;8.904;2023-11-19T06:59:24;100817.25;;;9.96;100.00
11856;BME280;5987;53.140;8.904;2023-11-19T07:02:28;100808.59;;;9.94;100.00
11856;BME280;5987;53.140;8.904;2023-11-19T07:05:33;100800.66;;;9.96;100.00
11856;BME280;5987;53.140;8.904;2023-11-19T07:08:38;100790.16;;;9.96;100.00
11856;BME280;5987;53.140;8.904;2023-11-19T07:11:42;100772.88;;;9.90;100.00
11856;BME280;5987;53.140;8.904;2023-11-19T07:14:47;100764.97;;;9.92;100.00
11856;BME280;5987;53.140;8.904;2023-11-19T07:17:51;100755.16;;;9.97;100.00
11856;BME280;5987;53.140;8.904;2023-11-19T07:21:01;100738.50;;;9.98;100.00
11856;BME280;5987;53.140;8.904;2023-11-19T07:24:06;100731.66;;;9.94;100.00
11856;BME280;5987;53.140;8.904;2023-11-19T07:27:10;100734.13;;;9.99;100.00
11856;BME280;5987;53.140;8.904;2023-11-19T07:30:15;100717.47;;;10.00;100.00
11856;BME280;5987;53.140;8.904;2023-11-19T07:33:18;100706.81;;;10.04;100.00
11856;BME280;5987;53.140;8.904;2023-11-19T07:36:24;100695.31;;;10.08;100.00
11856;BME280;5987;53.140;8.904;2023-11-19T07:39:27;100695.13;;;10.13;100.00
11856;BME280;5987;53.140;8.904;2023-11-19T07:42:31;100676.81;;;10.11;100.00
11856;BME280;5987;53.140;8.904;2023-11-19T07:45:34;100661.09;;;10.11;100.00
11856;BME280;5987;53.140;8.904;2023-11-19T07:48:39;100649.78;;;10.09;100.00
11856;BME280;5987;53.140;8.904;2023-11-19T07:51:44;100642.94;;;10.05;100.00
11856;BME280;5987;53.140;8.904;2023-11-19T07:54:48;100627.88;;;10.10;100.00
11856;BME280;5987;53.140;8.904;2023-11-19T07:57:52;100623.25;;;10.17;100.00
11856;BME280;5987;53.140;8.904;2023-11-19T08:00:55;100607.66;;;10.14;100.00
11856;BME280;5987;53.140;8.904;2023-11-19T08:03:59;100602.28;;;10.17;100.00
11856;BME280;5987;53.140;8.904;2023-11-19T08:07:05;100593.59;;;10.15;100.00
11856;BME280;5987;53.140;8.904;2023-11-19T08:10:09;100591.84;;;10.16;100.00
11856;BME280;5987;53.140;8.904;2023-11-19T08:13:13;100591.03;;;10.13;100.00
11856;BME280;5987;53.140;8.904;2023-11-19T08:16:17;100590.97;;;10.15;100.00
11856;BME280;5987;53.140;8.904;2023-11-19T08:19:21;100580.91;;;10.26;100.00
11856;BME280;5987;53.140;8.904;2023-11-19T08:22:26;100577.25;;;10.30;100.00
11856;BME280;5987;53.140;8.904;2023-11-19T08:25:30;100579.03;;;10.30;100.00
11856;BME280;5987;53.140;8.904;2023-11-19T08:28:37;100585.19;;;10.29;100.00
11856;BME280;5987;53.140;8.904;2023-11-19T08:31:41;100573.97;;;10.25;100.00
11856;BME280;5987;53.140;8.904;2023-11-19T08:34:45;100588.00;;;10.24;100.00
11856;BME280;5987;53.140;8.904;2023-11-19T08:37:50;100577.50;;;10.24;100.00
11856;BME280;5987;53.140;8.904;2023-11-19T08:40:55;100567.72;;;10.28;100.00
11856;BME280;5987;53.140;8.904;2023-11-19T08:44:02;100553.69;;;10.29;100.00
11856;BME280;5987;53.140;8.904;2023-11-19T08:47:06;100557.66;;;10.41;100.00
11856;BME280;5987;53.140;8.904;2023-11-19T08:50:10;100554.81;;;10.45;100.00
11856;BME280;5987;53.140;8.904;2023-11-19T08:53:15;100544.88;;;10.54;100.00
11856;BME280;5987;53.140;8.904;2023-11-19T08:56:19;100543.41;;;10.67;100.00
11856;BME280;5987;53.140;8.904;2023-11-19T08:59:22;100537.47;;;10.63;100.00
11856;BME280;5987;53.140;8.904;2023-11-19T09:02:27;100529.59;;;10.63;100.00
11856;BME280;5987;53.140;8.904;2023-11-19T09:05:30;100535.75;;;10.62;100.00
11856;BME280;5987;53.140;8.904;2023-11-19T09:08:36;100543.69;;;10.61;100.00
11856;BME280;5987;53.140;8.904;2023-11-19T09:11:39;100536.34;;;10.69;100.00
11856;BME280;5987;53.140;8.904;2023-11-19T09:14:43;100541.47;;;10.72;100.00
11856;BME280;5987;53.140;8.904;2023-11-19T09:17:48;100538.50;;;10.80;100.00
11856;BME280;5987;53.140;8.904;2023-11-19T09:20:51;100545.09;;;10.90;100.00
11856;BME280;5987;53.140;8.904;2023-11-19T09:23:57;100538.28;;;11.05;100.00
11856;BME280;5987;53.140;8.904;2023-11-19T09:27:00;100530.56;;;11.02;100.00
11856;BME280;5987;53.140;8.904;2023-11-19T09:30:06;100527.94;;;11.02;100.00
11856;BME280;5987;53.140;8.904;2023-11-19T09:33:10;100535.88;;;11.01;100.00
11856;BME280;5987;53.140;8.904;2023-11-19T09:36:14;100538.03;;;11.11;100.00
11856;BME280;5987;53.140;8.904;2023-11-19T09:39:21;100543.09;;;10.95;100.00
11856;BME280;5987;53.140;8.904;2023-11-19T09:42:25;100532.03;;;10.89;100.00
11856;BME280;5987;53.140;8.904;2023-11-19T09:45:32;100540.69;;;10.91;100.00
11856;BME280;5987;53.140;8.904;2023-11-19T09:48:42;100547.78;;;10.89;100.00
11856;BME280;5987;53.140;8.904;2023-11-19T09:51:46;100547.72;;;10.90;100.00
11856;BME280;5987;53.140;8.904;2023-11-19T09:54:51;100543.56;;;10.85;100.00
11856;BME280;5987;53.140;8.904;2023-11-19T09:57:55;100538.97;;;10.90;100.00
11856;BME280;5987;53.140;8.904;2023-11-19T10:01:03;100559.41;;;10.83;100.00
11856;BME280;5987;53.140;8.904;2023-11-19T10:04:15;100542.91;;;10.79;100.00
11856;BME280;5987;53.140;8.904;2023-11-19T10:07:21;100543.75;;;10.80;100.00
11856;BME280;5987;53.140;8.904;2023-11-19T10:10:30;100549.88;;;10.80;100.00
11856;BME280;5987;53.140;8.904;2023-11-19T10:13:35;100550.78;;;10.79;100.00
11856;BME280;5987;53.140;8.904;2023-11-19T10:16:42;100555.34;;;10.76;100.00
11856;BME280;5987;53.140;8.904;2023-11-19T10:19:49;100546.72;;;10.72;100.00
11856;BME280;5987;53.140;8.904;2023-11-19T10:22:53;100560.16;;;10.64;100.00
11856;BME280;5987;53.140;8.904;2023-11-19T10:26:04;100562.84;;;10.63;100.00
11856;BME280;5987;53.140;8.904;2023-11-19T10:29:08;100569.19;;;10.57;100.00
11856;BME280;5987;53.140;8.904;2023-11-19T10:32:13;100577.53;;;10.46;100.00
11856;BME280;5987;53.140;8.904;2023-11-19T10:35:28;100578.00;;;10.56;100.00
11856;BME280;5987;53.140;8.904;2023-11-19T10:38:32;100583.56;;;10.49;100.00
11856;BME280;5987;53.140;8.904;2023-11-19T10:41:37;100583.75;;;10.44;100.00
11856;BME280;5987;53.140;8.904;2023-11-19T10:44:42;100586.56;;;10.39;100.00
11856;BME280;5987;53.140;8.904;2023-11-19T10:47:47;100587.63;;;10.34;100.00
11856;BME280;5987;53.140;8.904;2023-11-19T10:50:54;100587.25;;;10.21;100.00
11856;BME280;5987;53.140;8.904;2023-11-19T10:54:03;100594.56;;;10.12;100.00
11856;BME280;5987;53.140;8.904;2023-11-19T10:57:12;100599.22;;;10.28;100.00
11856;BME280;5987;53.140;8.904;2023-11-19T11:00:24;100590.25;;;10.35;100.00
11856;BME280;5987;53.140;8.904;2023-11-19T11:03:36;100592.78;;;10.37;100.00
11856;BME280;5987;53.140;8.904;2023-11-19T11:06:43;100601.44;;;10.39;100.00
11856;BME280;5987;53.140;8.904;2023-11-19T11:09:47;100592.13;;;10.54;100.00
11856;BME280;5987;53.140;8.904;2023-11-19T11:12:57;100596.25;;;10.59;100.00
11856;BME280;5987;53.140;8.904;2023-11-19T11:16:05;100594.47;;;10.60;100.00
11856;BME280;5987;53.140;8.904;2023-11-19T11:19:11;100580.97;;;10.69;100.00
11856;BME280;5987;53.140;8.904;2023-11-19T11:22:18;100579.88;;;10.75;100.00
11856;BME280;5987;53.140;8.904;2023-11-19T11:25:39;100575.47;;;10.75;100.00
11856;BME280;5987;53.140;8.904;2023-11-19T11:28:59;100565.09;;;10.72;100.00
11856;BME280;5987;53.140;8.904;2023-11-19T11:32:20;100566.53;;;10.79;100.00
11856;BME280;5987;53.140;8.904;2023-11-19T11:35:40;100571.53;;;10.86;100.00
11856;BME280;5987;53.140;8.904;2023-11-19T11:38:50;100566.63;;;10.98;100.00
11856;BME280;5987;53.140;8.904;2023-11-19T11:42:35;100560.63;;;10.95;100.00
11856;BME280;5987;53.140;8.904;2023-11-19T11:45:41;100556.19;;;10.97;100.00
11856;BME280;5987;53.140;8.904;2023-11-19T11:48:49;100552.00;;;10.93;100.00
11856;BME280;5987;53.140;8.904;2023-11-19T11:52:02;100557.63;;;11.04;100.00
11856;BME280;5987;53.140;8.904;2023-11-19T11:55:08;100544.34;;;11.07;100.00
11856;BME280;5987;53.140;8.904;2023-11-19T11:58:12;100543.69;;;11.02;100.00
11856;BME280;5987;53.140;8.904;2023-11-19T12:01:18;100537.16;;;11.11;100.00
11856;BME280;5987;53.140;8.904;2023-11-19T12:04:26;100534.22;;;11.19;100.00
11856;BME280;5987;53.140;8.904;2023-11-19T12:07:33;100528.44;;;11.10;100.00
11856;BME280;5987;53.140;8.904;2023-11-19T12:10:46;100529.50;;;11.06;100.00
11856;BME280;5987;53.140;8.904;2023-11-19T12:13:56;100529.03;;;10.96;100.00
11856;BME280;5987;53.140;8.904;2023-11-19T12:17:37;100534.38;;;10.95;100.00
11856;BME280;5987;53.140;8.904;2023-11-19T12:20:43;100523.88;;;10.95;100.00
11856;BME280;5987;53.140;8.904;2023-11-19T12:23:46;100521.31;;;10.93;100.00
11856;BME280;5987;53.140;8.904;2023-11-19T12:26:52;100525.66;;;10.94;100.00
11856;BME280;5987;53.140;8.904;2023-11-19T12:29:57;100513.16;;;10.99;100.00
11856;BME280;5987;53.140;8.904;2023-11-19T12:33:08;100520.97;;;11.01;100.00
11856;BME280;5987;53.140;8.904;2023-11-19T12:36:12;100532.03;;;10.89;100.00
11856;BME280;5987;53.140;8.904;2023-11-19T12:39:17;100528.44;;;10.90;100.00
11856;BME280;5987;53.140;8.904;2023-11-19T12:42:35;100521.91;;;10.79;100.00
11856;BME280;5987;53.140;8.904;2023-11-19T12:45:40;100528.88;;;10.80;100.00
11856;BME280;5987;53.140;8.904;2023-11-19T12:48:46;100524.72;;;10.75;100.00
11856;BME280;5987;53.140;8.904;2023-11-19T12:51:52;100521.28;;;10.73;100.00
11856;BME280;5987;53.140;8.904;2023-11-19T12:54:57;100524.41;;;10.62;100.00
11856;BME280;5987;53.140;8.904;2023-11-19T12:58:01;100533.97;;;10.63;100.00
11856;BME280;5987;53.140;8.904;2023-11-19T13:01:07;100534.28;;;10.55;100.00
11856;BME280;5987;53.140;8.904;2023-11-19T13:04:19;100540.09;;;10.41;100.00
11856;BME280;5987;53.140;8.904;2023-11-19T13:07:23;100549.25;;;10.31;100.00
11856;BME280;5987;53.140;8.904;2023-11-19T13:10:27;100554.78;;;10.23;100.00
11856;BME280;5987;53.140;8.904;2023-11-19T13:13:32;100547.47;;;10.09;100.00
11856;BME280;5987;53.140;8.904;2023-11-19T13:16:37;100537.56;;;9.94;100.00
11856;BME280;5987;53.140;8.904;2023-11-19T13:19:43;100536.34;;;9.81;100.00
11856;BME280;5987;53.140;8.904;2023-11-19T13:23:01;100530.38;;;9.77;100.00
11856;BME280;5987;53.140;8.904;2023-11-19T13:26:07;100522.56;;;9.75;100.00
11856;BME280;5987;53.140;8.904;2023-11-19T13:29:11;100512.53;;;9.63;100.00
11856;BME280;5987;53.140;8.904;2023-11-19T13:32:15;100508.16;;;9.64;100.00
11856;BME280;5987;53.140;8.904;2023-11-19T13:35:20;100509.69;;;9.69;100.00
11856;BME280;5987;53.140;8.904;2023-11-19T13:38:24;100504.78;;;9.84;100.00
11856;BME280;5987;53.140;8.904;2023-11-19T13:41:28;100494.03;;;9.90;100.00
11856;BME280;5987;53.140;8.904;2023-11-19T13:44:32;100497.47;;;9.92;100.00
11856;BME280;5987;53.140;8.904;2023-11-19T13:47:36;100494.16;;;9.87;100.00
11856;BME280;5987;53.140;8.904;2023-11-19T13:50:41;100492.22;;;9.92;100.00
11856;BME280;5987;53.140;8.904;2023-11-19T13:53:46;100494.09;;;9.88;100.00
11856;BME280;5987;53.140;8.904;2023-11-19T13:56:55;100503.06;;;9.83;100.00
11856;BME280;5987;53.140;8.904;2023-11-19T14:00:01;100503.94;;;9.83;100.00
11856;BME280;5987;53.140;8.904;2023-11-19T14:03:08;100495.56;;;9.73;100.00
11856;BME280;5987;53.140;8.904;2023-11-19T14:06:14;100501.78;;;9.71;100.00
11856;BME280;5987;53.140;8.904;2023-11-19T14:09:18;100504.59;;;9.66;100.00
11856;BME280;5987;53.140;8.904;2023-11-19T14:12:22;100515.97;;;9.65;100.00
11856;BME280;5987;53.140;8.904;2023-11-19T14:15:25;100514.94;;;9.69;100.00
11856;BME280;5987;53.140;8.904;2023-11-19T14:18:29;100513.91;;;9.73;100.00
11856;BME280;5987;53.140;8.904;2023-11-19T14:21:35;100520.78;;;9.76;100.00
11856;BME280;5987;53.140;8.904;2023-11-19T14:24:39;100519.69;;;9.82;100.00
11856;BME280;5987;53.140;8.904;2023-11-19T14:27:45;100526.53;;;9.86;100.00
11856;BME280;5987;53.140;8.904;2023-11-19T14:30:49;100530.09;;;9.85;100.00
11856;BME280;5987;53.140;8.904;2023-11-19T14:33:59;100534.41;;;9.86;100.00
11856;BME280;5987;53.140;8.904;2023-11-19T14:37:05;100534.41;;;9.86;100.00
11856;BME280;5987;53.140;8.904;2023-11-19T14:40:10;100538.22;;;9.77;100.00
11856;BME280;5987;53.140;8.904;2023-11-19T14:43:14;100529.47;;;9.78;100.00
11856;BME280;5987;53.140;8.904;2023-11-19T14:46:19;100561.63;;;9.83;100.00
11856;BME280;5987;53.140;8.904;2023-11-19T14:49:23;100567.56;;;9.87;100.00
11856;BME280;5987;53.140;8.904;2023-11-19T14:52:29;100570.31;;;9.84;100.00
11856;BME280;5987;53.140;8.904;2023-11-19T14:55:33;100576.59;;;9.79;100.00
11856;BME280;5987;53.140;8.904;2023-11-19T14:58:37;100571.34;;;9.79;100.00
11856;BME280;5987;53.140;8.904;2023-11-19T15:01:41;100565.41;;;9.74;100.00
11856;BME280;5987;53.140;8.904;2023-11-19T15:04:44;100561.16;;;9.72;100.00
11856;BME280;5987;53.140;8.904;2023-11-19T15:07:50;100555.94;;;9.70;100.00
11856;BME280;5987;53.140;8.904;2023-11-19T15:10:54;100552.56;;;9.68;100.00
11856;BME280;5987;53.140;8.904;2023-11-19T15:13:59;100558.75;;;9.66;100.00
11856;BME280;5987;53.140;8.904;2023-11-19T15:17:04;100555.34;;;9.64;100.00
11856;BME280;5987;53.140;8.904;2023-11-19T15:20:10;100562.41;;;9.61;100.00
11856;BME280;5987;53.140;8.904;2023-11-19T15:23:19;100552.88;;;9.59;100.00
11856;BME280;5987;53.140;8.904;2023-11-19T15:26:23;100558.03;;;9.62;100.00
11856;BME280;5987;53.140;8.904;2023-11-19T15:29:28;100560.09;;;9.54;100.00
11856;BME280;5987;53.140;8.904;2023-11-19T15:32:32;100568.72;;;9.56;100.00
11856;BME280;5987;53.140;8.904;2023-11-19T15:35:36;100569.69;;;9.53;100.00
11856;BME280;5987;53.140;8.904;2023-11-19T15:38:43;100567.88;;;9.55;100.00
11856;BME280;5987;53.140;8.904;2023-11-19T15:41:49;100574.09;;;9.53;100.00
11856;BME280;5987;53.140;8.904;2023-11-19T15:44:53;100566.91;;;9.58;100.00
11856;BME280;5987;53.140;8.904;2023-11-19T15:47:57;100572.25;;;9.55;100.00
11856;BME280;5987;53.140;8.904;2023-11-19T15:51:01;100576.78;;;9.51;100.00
11856;BME280;5987;53.140;8.904;2023-11-19T15:54:07;100586.28;;;9.54;100.00
11856;BME280;5987;53.140;8.904;2023-11-19T15:57:10;100582.06;;;9.50;100.00
11856;BME280;5987;53.140;8.904;2023-11-19T16:00:17;100584.81;;;9.47;100.00
11856;BME280;5987;53.140;8.904;2023-11-19T16:03:23;100591.69;;;9.49;100.00
11856;BME280;5987;53.140;8.904;2023-11-19T16:06:27;100590.84;;;9.49;100.00
11856;BME280;5987;53.140;8.904;2023-11-19T16:09:34;100589.06;;;9.49;100.00
11856;BME280;5987;53.140;8.904;2023-11-19T16:12:40;100582.06;;;9.50;100.00
11856;BME280;5987;53.140;8.904;2023-11-19T16:15:45;100586.41;;;9.51;100.00
11856;BME280;5987;53.140;8.904;2023-11-19T16:18:48;100586.28;;;9.54;100.00